createdAt,value
2018-12-19T00:00:35.999Z,5.06
2018-12-19T00:02:59.406Z,4.86
2018-12-19T00:07:51.897Z,4.63
2018-12-19T00:10:15.039Z,4.73
2018-12-19T00:12:38.168Z,4.90
2018-12-19T00:15:01.279Z,4.95
2018-12-19T00:17:24.381Z,4.92
2018-12-19T00:19:47.540Z,4.86
2018-12-19T00:22:10.634Z,4.89
2018-12-19T00:24:34.062Z,4.69
2018-12-19T00:26:57.194Z,4.69
2018-12-19T00:29:20.291Z,4.70
2018-12-19T00:31:43.427Z,4.81
2018-12-19T00:34:06.534Z,4.75
2018-12-19T00:36:29.696Z,4.79
2018-12-19T00:38:52.806Z,4.75
2018-12-19T00:41:15.925Z,4.78
2018-12-19T00:43:39.033Z,4.72
2018-12-19T00:46:02.155Z,4.54
2018-12-19T00:48:25.241Z,4.63
2018-12-19T00:50:48.366Z,4.63
2018-12-19T00:53:11.463Z,4.68
2018-12-19T00:55:34.584Z,4.32
2018-12-19T00:57:57.688Z,4.61
2018-12-19T01:00:20.802Z,4.66
2018-12-19T01:02:43.965Z,4.70
2018-12-19T01:05:07.151Z,4.66
2018-12-19T01:07:30.267Z,4.55
2018-12-19T01:09:53.375Z,4.48
2018-12-19T01:12:16.494Z,4.51
2018-12-19T01:14:39.609Z,4.51
2018-12-19T01:17:02.756Z,4.48
2018-12-19T01:19:25.886Z,4.50
2018-12-19T01:21:49.447Z,4.40
2018-12-19T01:24:12.572Z,4.52
2018-12-19T01:26:35.696Z,4.53
2018-12-19T01:28:58.819Z,4.63
2018-12-19T01:31:21.937Z,4.10
2018-12-19T01:33:45.060Z,4.31
2018-12-19T01:36:08.168Z,4.29
2018-12-19T01:38:31.299Z,4.09
2018-12-19T01:40:54.497Z,4.21
2018-12-19T01:43:17.605Z,4.25
2018-12-19T01:45:40.751Z,4.40
2018-12-19T01:48:03.915Z,4.42
2018-12-19T01:50:27.046Z,4.09
2018-12-19T01:52:50.182Z,4.23
2018-12-19T01:55:13.338Z,4.16
2018-12-19T01:57:36.474Z,4.14
2018-12-19T01:59:59.589Z,4.19
2018-12-19T02:02:22.707Z,3.82
2018-12-19T02:04:45.872Z,4.19
2018-12-19T02:07:09.041Z,4.42
2018-12-19T02:09:32.174Z,4.54
2018-12-19T02:11:55.309Z,4.57
2018-12-19T02:14:18.409Z,4.62
2018-12-19T02:16:41.548Z,4.56
2018-12-19T02:19:04.698Z,4.56
2018-12-19T02:21:29.028Z,4.35
2018-12-19T02:23:52.107Z,4.54
2018-12-19T02:26:15.779Z,4.44
2018-12-19T02:28:38.869Z,4.38
2018-12-19T02:31:02.056Z,4.56
2018-12-19T02:33:25.169Z,4.48
2018-12-19T02:35:48.279Z,4.25
2018-12-19T02:38:11.456Z,4.47
2018-12-19T02:40:34.563Z,4.30
2018-12-19T02:42:57.674Z,4.45
2018-12-19T02:45:20.796Z,4.52
2018-12-19T02:47:43.926Z,4.00
2018-12-19T02:50:07.212Z,4.39
2018-12-19T02:52:30.331Z,4.46
2018-12-19T02:54:53.455Z,4.31
2018-12-19T02:57:16.566Z,4.35
2018-12-19T02:59:39.676Z,4.42
2018-12-19T03:02:02.831Z,4.19
2018-12-19T03:04:26.011Z,4.51
2018-12-19T03:06:49.183Z,4.40
2018-12-19T03:09:12.368Z,4.37
2018-12-19T03:11:35.500Z,4.58
2018-12-19T03:13:58.661Z,4.49
2018-12-19T03:16:22.109Z,4.52
2018-12-19T03:18:45.239Z,4.48
2018-12-19T03:21:08.363Z,3.87
2018-12-19T03:23:32.078Z,4.37
2018-12-19T03:25:55.162Z,4.43
2018-12-19T03:28:18.288Z,4.34
2018-12-19T03:30:41.440Z,4.57
2018-12-19T03:33:04.593Z,4.55
2018-12-19T03:35:27.723Z,4.26
2018-12-19T03:37:50.946Z,4.10
2018-12-19T03:40:14.130Z,4.23
2018-12-19T03:45:06.944Z,4.45
2018-12-19T03:47:30.088Z,4.55
2018-12-19T03:49:53.223Z,4.54
2018-12-19T03:52:16.377Z,4.42
2018-12-19T03:54:39.533Z,4.64
2018-12-19T03:57:03.503Z,4.51
2018-12-19T03:59:26.698Z,4.45
2018-12-19T04:01:49.827Z,4.61
2018-12-19T04:04:12.975Z,4.52
2018-12-19T04:06:36.138Z,4.75
2018-12-19T04:08:59.260Z,4.69
2018-12-19T04:11:22.390Z,4.68
2018-12-19T04:13:45.496Z,4.61
2018-12-19T04:16:08.621Z,4.25
2018-12-19T04:21:01.198Z,4.55
2018-12-19T04:23:25.389Z,4.60
2018-12-19T04:25:48.503Z,4.05
2018-12-19T04:28:11.612Z,4.48
2018-12-19T04:30:36.687Z,4.22
2018-12-19T04:32:59.933Z,4.65
2018-12-19T04:35:23.051Z,4.64
2018-12-19T04:37:46.182Z,4.43
2018-12-19T04:40:09.348Z,4.61
2018-12-19T04:42:32.453Z,4.53
2018-12-19T04:44:55.580Z,4.81
2018-12-19T04:47:18.736Z,4.27
2018-12-19T04:49:41.839Z,4.22
2018-12-19T04:52:04.983Z,4.19
2018-12-19T04:54:28.181Z,4.65
2018-12-19T04:56:51.369Z,4.69
2018-12-19T04:59:14.509Z,4.74
2018-12-19T05:01:37.618Z,4.97
2018-12-19T05:04:00.723Z,4.35
2018-12-19T05:06:23.865Z,4.58
2018-12-19T05:08:46.967Z,4.80
2018-12-19T05:11:10.091Z,4.28
2018-12-19T05:13:33.202Z,4.50
2018-12-19T05:15:56.344Z,4.45
2018-12-19T05:18:19.455Z,4.69
2018-12-19T05:20:42.551Z,4.66
2018-12-19T05:23:05.709Z,4.61
2018-12-19T05:25:28.814Z,4.38
2018-12-19T05:27:51.951Z,4.15
2018-12-19T05:30:15.067Z,4.10
2018-12-19T05:32:38.170Z,4.43
2018-12-19T05:35:01.428Z,3.80
2018-12-19T05:37:24.552Z,4.56
2018-12-19T05:39:47.690Z,4.63
2018-12-19T05:42:10.792Z,4.60
2018-12-19T05:44:34.012Z,4.61
2018-12-19T05:46:57.107Z,4.81
2018-12-19T05:49:20.223Z,4.50
2018-12-19T05:51:43.331Z,4.54
2018-12-19T05:54:06.446Z,4.45
2018-12-19T05:56:29.587Z,4.88
2018-12-19T05:58:52.780Z,4.84
2018-12-19T06:01:15.896Z,4.99
2018-12-19T06:03:39.871Z,4.82
2018-12-19T06:06:03.039Z,4.73
2018-12-19T06:08:26.201Z,4.82
2018-12-19T06:10:49.306Z,4.74
2018-12-19T06:13:12.448Z,4.84
2018-12-19T06:15:35.567Z,4.98
2018-12-19T06:17:58.688Z,5.17
2018-12-19T06:20:21.783Z,5.05
2018-12-19T06:22:44.929Z,5.22
2018-12-19T06:25:08.064Z,5.28
2018-12-19T06:27:31.205Z,5.23
2018-12-19T06:29:54.563Z,4.98
2018-12-19T06:32:17.697Z,5.17
2018-12-19T06:34:40.834Z,5.08
2018-12-19T06:37:04.101Z,4.89
2018-12-19T06:39:27.340Z,5.17
2018-12-19T06:41:50.475Z,5.24
2018-12-19T06:44:13.618Z,5.13
2018-12-19T06:46:36.774Z,4.91
2018-12-19T06:48:59.933Z,5.00
2018-12-19T06:51:23.073Z,5.13
2018-12-19T06:53:46.160Z,5.27
2018-12-19T06:56:09.290Z,5.28
2018-12-19T06:58:32.413Z,4.87
2018-12-19T07:00:55.545Z,5.03
2018-12-19T07:03:18.670Z,5.11
2018-12-19T07:05:41.779Z,5.18
2018-12-19T07:08:04.898Z,5.13
2018-12-19T07:10:28.002Z,5.11
2018-12-19T07:12:51.121Z,4.98
2018-12-19T07:15:14.261Z,4.80
2018-12-19T07:17:37.387Z,4.74
2018-12-19T07:20:00.518Z,4.80
2018-12-19T07:22:23.619Z,5.13
2018-12-19T07:24:46.795Z,4.61
2018-12-19T07:27:10.289Z,4.68
2018-12-19T07:29:33.508Z,5.02
2018-12-19T07:31:56.646Z,4.96
2018-12-19T07:34:19.770Z,5.00
2018-12-19T07:36:42.905Z,4.93
2018-12-19T07:39:07.080Z,4.54
2018-12-19T07:41:30.173Z,5.15
2018-12-19T07:43:53.310Z,5.28
2018-12-19T07:46:19.753Z,5.20
2018-12-19T07:48:41.674Z,5.21
2018-12-19T07:51:04.809Z,5.34
2018-12-19T07:53:27.945Z,5.23
2018-12-19T07:55:51.101Z,5.45
2018-12-19T07:58:14.195Z,4.21
2018-12-19T08:00:37.336Z,4.94
2018-12-19T08:03:00.448Z,5.29
2018-12-19T08:05:26.375Z,5.32
2018-12-19T08:07:48.667Z,5.30
2018-12-19T08:10:11.772Z,5.31
2018-12-19T08:12:36.110Z,4.89
2018-12-19T08:15:01.749Z,5.37
2018-12-19T08:17:24.872Z,5.14
2018-12-19T08:19:48.072Z,5.06
2018-12-19T08:22:11.271Z,4.56
2018-12-19T08:24:34.360Z,4.63
2018-12-19T08:26:57.494Z,4.83
2018-12-19T08:29:20.606Z,5.07
2018-12-19T08:31:43.846Z,5.21
2018-12-19T08:34:07.234Z,5.14
2018-12-19T08:36:30.331Z,5.13
2018-12-19T08:38:53.515Z,5.34
2018-12-19T08:41:16.623Z,5.46
2018-12-19T08:43:39.779Z,5.44
2018-12-19T08:46:02.984Z,5.33
2018-12-19T08:48:26.075Z,5.43
2018-12-19T08:50:49.244Z,5.15
2018-12-19T08:53:12.333Z,5.49
2018-12-19T08:55:35.468Z,4.80
2018-12-19T08:57:58.599Z,5.35
2018-12-19T09:00:21.720Z,5.57
2018-12-19T09:02:44.876Z,5.48
2018-12-19T09:05:08.056Z,5.40
2018-12-19T09:07:31.208Z,5.11
2018-12-19T09:09:54.334Z,4.98
2018-12-19T09:12:17.460Z,5.31
2018-12-19T09:14:40.659Z,5.45
2018-12-19T09:17:03.905Z,5.35
2018-12-19T09:19:27.048Z,5.47
2018-12-19T09:21:50.223Z,4.91
2018-12-19T09:24:13.324Z,5.22
2018-12-19T09:26:36.480Z,5.29
2018-12-19T09:28:59.612Z,5.01
2018-12-19T09:31:22.763Z,5.13
2018-12-19T09:33:45.913Z,5.35
2018-12-19T09:36:09.047Z,5.65
2018-12-19T09:38:32.161Z,5.57
2018-12-19T09:40:55.262Z,5.61
2018-12-19T09:43:18.411Z,5.23
2018-12-19T09:45:41.568Z,5.57
2018-12-19T09:48:04.752Z,5.46
2018-12-19T09:50:27.874Z,5.26
2018-12-19T09:52:50.985Z,5.44
2018-12-19T09:55:14.140Z,5.14
2018-12-19T09:57:37.413Z,5.14
2018-12-19T10:00:00.527Z,4.99
2018-12-19T10:02:23.991Z,5.37
2018-12-19T10:04:47.098Z,5.02
2018-12-19T10:07:10.208Z,5.43
2018-12-19T10:09:33.349Z,4.95
2018-12-19T10:11:56.510Z,5.62
2018-12-19T10:14:19.667Z,5.53
2018-12-19T10:16:42.786Z,5.75
2018-12-19T10:19:05.929Z,5.63
2018-12-19T10:21:29.130Z,5.71
2018-12-19T10:23:52.265Z,5.79
2018-12-19T10:26:15.424Z,5.77
2018-12-19T10:28:38.534Z,5.52
2018-12-19T10:31:01.674Z,5.52
2018-12-19T10:33:24.798Z,5.65
2018-12-19T10:35:47.903Z,5.66
2018-12-19T10:38:11.023Z,5.85
2018-12-19T10:40:34.122Z,5.91
2018-12-19T10:42:57.241Z,5.43
2018-12-19T10:45:20.348Z,5.86
2018-12-19T10:47:43.449Z,5.38
2018-12-19T10:50:07.653Z,5.92
2018-12-19T10:52:30.804Z,5.85
2018-12-19T10:54:53.923Z,5.60
2018-12-19T10:57:17.098Z,5.95
2018-12-19T10:59:40.229Z,6.04
2018-12-19T11:02:03.403Z,5.44
2018-12-19T11:04:26.566Z,5.92
2018-12-19T11:06:49.685Z,6.00
2018-12-19T11:09:12.795Z,5.18
2018-12-19T11:11:35.900Z,5.99
2018-12-19T11:13:59.066Z,6.19
2018-12-19T11:16:22.179Z,6.12
2018-12-19T11:18:45.274Z,6.03
2018-12-19T11:21:08.501Z,6.17
2018-12-19T11:23:31.609Z,6.07
2018-12-19T11:25:54.757Z,6.22
2018-12-19T11:28:17.870Z,6.19
2018-12-19T11:30:40.992Z,6.15
2018-12-19T11:33:04.118Z,6.19
2018-12-19T11:35:27.230Z,6.09
2018-12-19T11:37:50.365Z,6.36
2018-12-19T11:40:13.548Z,6.22
2018-12-19T11:42:36.700Z,6.39
2018-12-19T11:44:59.891Z,6.36
2018-12-19T11:47:23.013Z,6.46
2018-12-19T11:49:46.119Z,6.30
2018-12-19T11:52:09.279Z,6.26
2018-12-19T11:54:32.364Z,5.88
2018-12-19T11:56:55.480Z,6.04
2018-12-19T11:59:18.599Z,6.38
2018-12-19T12:01:41.754Z,6.30
2018-12-19T12:04:04.951Z,6.49
2018-12-19T12:06:28.077Z,6.53
2018-12-19T12:08:51.238Z,6.62
2018-12-19T12:11:14.382Z,6.68
2018-12-19T12:13:37.478Z,6.66
2018-12-19T12:16:00.592Z,6.79
2018-12-19T12:18:23.707Z,6.51
2018-12-19T12:20:46.872Z,6.68
2018-12-19T12:23:09.981Z,6.83
2018-12-19T12:25:33.095Z,6.86
2018-12-19T12:27:56.179Z,6.72
2018-12-19T12:30:19.282Z,6.51
2018-12-19T12:32:42.409Z,6.26
2018-12-19T12:35:06.583Z,6.82
2018-12-19T12:37:29.712Z,6.75
2018-12-19T12:39:52.820Z,6.48
2018-12-19T12:42:15.972Z,6.63
2018-12-19T12:44:39.555Z,6.75
2018-12-19T12:47:02.696Z,6.86
2018-12-19T12:49:25.833Z,6.95
2018-12-19T12:51:48.982Z,6.99
2018-12-19T12:54:12.085Z,6.78
2018-12-19T12:56:35.218Z,6.85
2018-12-19T12:58:58.311Z,7.02
2018-12-19T13:01:21.442Z,6.53
2018-12-19T13:03:44.545Z,6.27
2018-12-19T13:06:07.636Z,6.66
2018-12-19T13:08:30.758Z,6.44
2018-12-19T13:10:53.849Z,6.43
2018-12-19T13:13:16.975Z,6.74
2018-12-19T13:15:42.056Z,6.81
2018-12-19T13:18:05.239Z,6.95
2018-12-19T13:20:28.402Z,7.09
2018-12-19T13:22:51.504Z,6.98
2018-12-19T13:25:14.611Z,7.01
2018-12-19T13:27:37.759Z,7.28
2018-12-19T13:30:00.851Z,7.11
2018-12-19T13:32:27.762Z,6.95
2018-12-19T13:34:50.886Z,7.02
2018-12-19T13:37:13.995Z,7.10
2018-12-19T13:39:37.091Z,7.05
2018-12-19T13:42:05.568Z,7.06
2018-12-19T13:44:25.377Z,7.18
2018-12-19T13:46:48.574Z,6.93
2018-12-19T13:49:11.683Z,6.67
2018-12-19T13:51:34.873Z,6.91
2018-12-19T13:53:57.995Z,7.22
2018-12-19T13:56:21.118Z,7.13
2018-12-19T13:58:44.256Z,7.41
2018-12-19T14:01:07.352Z,7.36
2018-12-19T14:03:30.450Z,7.46
2018-12-19T14:05:53.563Z,7.49
2018-12-19T14:08:16.679Z,7.28
2018-12-19T14:10:40.220Z,7.27
2018-12-19T14:13:03.389Z,7.06
2018-12-19T14:15:26.479Z,7.15
2018-12-19T14:17:49.640Z,7.48
2018-12-19T14:20:12.758Z,7.13
2018-12-19T14:22:35.976Z,7.22
2018-12-19T14:24:59.107Z,7.36
2018-12-19T14:27:22.216Z,7.09
2018-12-19T14:29:45.365Z,7.43
2018-12-19T14:32:08.478Z,7.28
2018-12-19T14:34:31.599Z,7.64
2018-12-19T14:36:54.743Z,7.38
2018-12-19T14:39:17.865Z,7.51
2018-12-19T14:41:41.001Z,7.18
2018-12-19T14:44:04.236Z,7.41
2018-12-19T14:46:27.373Z,7.17
2018-12-19T14:48:50.471Z,7.23
2018-12-19T14:51:13.603Z,7.15
2018-12-19T14:53:36.723Z,7.52
2018-12-19T14:55:59.929Z,7.62
2018-12-19T14:58:23.055Z,7.45
2018-12-19T15:00:46.155Z,7.60
2018-12-19T15:03:09.265Z,7.84
2018-12-19T15:05:32.383Z,7.69
2018-12-19T15:07:55.531Z,7.59
2018-12-19T15:10:18.794Z,7.72
2018-12-19T15:12:41.914Z,7.37
2018-12-19T15:15:07.170Z,7.79
2018-12-19T15:17:30.327Z,7.78
2018-12-19T15:19:53.426Z,7.92
2018-12-19T15:22:16.533Z,7.77
2018-12-19T15:24:39.754Z,7.92
2018-12-19T15:27:02.897Z,7.70
2018-12-19T15:29:26.012Z,7.93
2018-12-19T15:31:49.244Z,7.97
2018-12-19T15:34:12.349Z,7.83
2018-12-19T15:36:35.633Z,7.66
2018-12-19T15:38:58.729Z,7.67
2018-12-19T15:41:21.918Z,7.63
2018-12-19T15:43:45.038Z,7.80
2018-12-19T15:46:08.147Z,7.83
2018-12-19T15:48:31.275Z,7.87
2018-12-19T15:50:54.391Z,8.00
2018-12-19T15:53:17.530Z,8.02
2018-12-19T15:55:40.637Z,8.05
2018-12-19T15:58:03.820Z,7.87
2018-12-19T16:00:26.916Z,8.08
2018-12-19T16:02:50.044Z,8.10
2018-12-19T16:05:13.199Z,7.97
2018-12-19T16:07:36.321Z,8.10
2018-12-19T16:09:59.568Z,8.10
2018-12-19T16:12:22.662Z,8.13
2018-12-19T16:14:45.881Z,8.05
2018-12-19T16:17:08.995Z,8.05
2018-12-19T16:19:32.098Z,8.02
2018-12-19T16:21:55.211Z,8.07
2018-12-19T16:24:18.323Z,7.81
2018-12-19T16:26:41.552Z,8.00
2018-12-19T16:29:04.662Z,7.71
2018-12-19T16:31:27.799Z,7.87
2018-12-19T16:33:50.935Z,7.52
2018-12-19T16:36:14.128Z,7.62
2018-12-19T16:38:37.348Z,7.61
2018-12-19T16:41:00.453Z,7.70
2018-12-19T16:43:23.559Z,7.78
2018-12-19T16:45:46.688Z,7.80
2018-12-19T16:48:09.777Z,7.77
2018-12-19T16:50:33.125Z,7.37
2018-12-19T16:52:56.224Z,7.45
2018-12-19T16:55:19.393Z,7.67
2018-12-19T16:57:42.529Z,7.45
2018-12-19T17:00:07.938Z,7.23
2018-12-19T17:02:31.052Z,7.56
2018-12-19T17:04:54.176Z,7.68
2018-12-19T17:07:17.395Z,7.83
2018-12-19T17:09:40.521Z,8.04
2018-12-19T17:12:03.661Z,7.97
2018-12-19T17:14:26.831Z,7.83
2018-12-19T17:16:49.922Z,7.94
2018-12-19T17:19:13.079Z,7.58
2018-12-19T17:21:36.194Z,7.67
2018-12-19T17:23:59.424Z,7.81
2018-12-19T17:26:22.543Z,7.74
2018-12-19T17:28:45.640Z,7.73
2018-12-19T17:31:08.809Z,7.61
2018-12-19T17:33:31.929Z,7.58
2018-12-19T17:35:55.029Z,7.60
2018-12-19T17:38:18.203Z,7.73
2018-12-19T17:40:41.318Z,7.89
2018-12-19T17:43:04.444Z,7.73
2018-12-19T17:45:27.563Z,7.86
2018-12-19T17:47:50.668Z,7.75
2018-12-19T17:50:13.830Z,7.94
2018-12-19T17:52:36.942Z,7.97
2018-12-19T17:55:00.098Z,8.12
2018-12-19T17:57:23.313Z,8.14
2018-12-19T17:59:46.426Z,8.13
2018-12-19T18:02:09.615Z,8.13
2018-12-19T18:04:32.718Z,8.11
2018-12-19T18:06:55.843Z,7.88
2018-12-19T18:09:20.688Z,8.04
2018-12-19T18:11:43.835Z,8.04
2018-12-19T18:14:07.016Z,7.66
2018-12-19T18:16:30.121Z,7.84
2018-12-19T18:18:53.242Z,7.93
2018-12-19T18:21:16.377Z,7.69
2018-12-19T18:23:39.552Z,7.80
2018-12-19T18:26:02.708Z,7.65
2018-12-19T18:28:25.876Z,7.73
2018-12-19T18:30:48.981Z,7.71
2018-12-19T18:33:12.068Z,7.66
2018-12-19T18:35:35.223Z,7.48
2018-12-19T18:40:27.655Z,7.65
2018-12-19T18:42:50.765Z,7.63
2018-12-19T18:45:13.907Z,7.56
2018-12-19T18:47:37.052Z,7.59
2018-12-19T18:50:00.187Z,7.50
2018-12-19T18:52:23.335Z,7.50
2018-12-19T18:54:46.451Z,7.46
2018-12-19T18:57:09.541Z,7.46
2018-12-19T18:59:32.674Z,7.37
2018-12-19T19:01:55.796Z,7.33
2018-12-19T19:04:18.952Z,7.24
2018-12-19T19:06:42.081Z,7.15
2018-12-19T19:09:05.877Z,7.22
2018-12-19T19:11:29.125Z,7.21
2018-12-19T19:13:52.232Z,7.11
2018-12-19T19:16:15.398Z,7.19
2018-12-19T19:18:38.522Z,7.15
2018-12-19T19:21:01.660Z,7.11
2018-12-19T19:23:24.801Z,7.09
2018-12-19T19:25:48.159Z,7.08
2018-12-19T19:28:11.404Z,7.04
2018-12-19T19:30:34.608Z,6.98
2018-12-19T19:32:57.810Z,6.99
2018-12-19T19:35:21.007Z,6.95
2018-12-19T19:37:44.260Z,6.98
2018-12-19T19:40:08.738Z,7.00
2018-12-19T19:42:31.857Z,6.86
2018-12-19T19:44:55.050Z,6.86
2018-12-19T19:49:49.139Z,6.82
2018-12-19T19:52:12.360Z,6.88
2018-12-19T19:54:35.546Z,6.62
2018-12-19T19:56:58.731Z,6.73
2018-12-19T19:59:21.859Z,6.65
2018-12-19T20:01:45.263Z,6.83
2018-12-19T20:04:08.412Z,6.68
2018-12-19T20:06:31.577Z,6.76
2018-12-19T20:08:54.716Z,6.72
2018-12-19T20:11:18.523Z,6.81
2018-12-19T20:13:41.704Z,6.78
2018-12-19T20:16:04.816Z,6.61
2018-12-19T20:18:28.029Z,6.44
2018-12-19T20:20:51.163Z,6.63
2018-12-19T20:23:14.269Z,6.66
2018-12-19T20:25:37.452Z,6.68
2018-12-19T20:28:00.632Z,6.31
2018-12-19T20:30:23.858Z,6.09
2018-12-19T20:32:47.009Z,6.30
2018-12-19T20:35:10.171Z,6.39
2018-12-19T20:37:35.067Z,6.71
2018-12-19T20:39:58.185Z,6.66
2018-12-19T20:42:21.328Z,6.78
2018-12-19T20:44:44.469Z,6.68
2018-12-19T20:47:07.597Z,6.73
2018-12-19T20:49:30.787Z,6.73
2018-12-19T20:51:54.915Z,6.70
2018-12-19T20:54:18.064Z,6.59
2018-12-19T20:56:41.208Z,6.42
2018-12-19T20:59:04.345Z,6.53
2018-12-19T21:01:27.499Z,6.53
2018-12-19T21:03:50.648Z,6.57
2018-12-19T21:06:13.823Z,6.63
2018-12-19T21:08:37.891Z,6.58
2018-12-19T21:11:01.011Z,6.52
2018-12-19T21:13:24.205Z,6.53
2018-12-19T21:15:47.324Z,6.69
2018-12-19T21:18:15.997Z,6.67
2018-12-19T21:20:39.118Z,6.65
2018-12-19T21:23:02.240Z,6.63
2018-12-19T21:25:25.416Z,6.80
2018-12-19T21:27:48.544Z,6.66
2018-12-19T21:30:11.711Z,6.76
2018-12-19T21:32:34.819Z,6.60
2018-12-19T21:34:57.966Z,6.64
2018-12-19T21:37:21.098Z,6.81
2018-12-19T21:39:44.298Z,6.86
2018-12-19T21:42:07.515Z,6.77
2018-12-19T21:44:30.632Z,6.84
2018-12-19T21:46:54.405Z,6.87
2018-12-19T21:49:17.539Z,6.91
2018-12-19T21:51:40.797Z,6.99
2018-12-19T21:54:04.153Z,6.96
2018-12-19T21:56:27.329Z,6.97
2018-12-19T21:58:50.505Z,6.93
2018-12-19T22:01:13.750Z,6.98
2018-12-19T22:03:36.987Z,6.97
2018-12-19T22:06:00.195Z,7.02
2018-12-19T22:08:23.346Z,6.76
2018-12-19T22:10:46.635Z,7.01
2018-12-19T22:13:09.753Z,6.93
2018-12-19T22:15:32.886Z,7.03
2018-12-19T22:18:01.525Z,7.04
2018-12-19T22:20:24.712Z,7.05
2018-12-19T22:22:47.858Z,7.13
2018-12-19T22:25:10.968Z,7.10
2018-12-19T22:27:34.265Z,7.12
2018-12-19T22:29:57.407Z,7.03
2018-12-19T22:32:20.592Z,7.07
2018-12-19T22:34:43.862Z,7.04
2018-12-19T22:37:07.010Z,7.04
2018-12-19T22:39:30.160Z,7.08
2018-12-19T22:41:53.323Z,7.12
2018-12-19T22:44:16.540Z,7.17
2018-12-19T22:46:39.697Z,7.08
2018-12-19T22:49:02.804Z,7.09
2018-12-19T22:51:25.968Z,7.13
2018-12-19T22:53:49.127Z,6.83
2018-12-19T22:56:12.285Z,6.85
2018-12-19T22:58:35.502Z,6.89
2018-12-19T23:01:04.476Z,7.08
2018-12-19T23:03:33.219Z,7.12
2018-12-19T23:05:56.474Z,7.12
2018-12-19T23:08:19.688Z,7.07
2018-12-19T23:10:42.892Z,7.12
2018-12-19T23:13:06.032Z,7.14
2018-12-19T23:15:29.135Z,7.13
2018-12-19T23:17:54.357Z,7.17
2018-12-19T23:20:17.453Z,7.22
2018-12-19T23:22:40.581Z,7.23
2018-12-19T23:25:04.967Z,6.97
2018-12-19T23:27:28.259Z,7.06
2018-12-19T23:29:51.415Z,7.18
2018-12-19T23:32:16.735Z,7.30
2018-12-19T23:34:39.835Z,7.17
2018-12-19T23:37:03.163Z,7.23
2018-12-19T23:39:26.313Z,7.29
2018-12-19T23:41:49.492Z,7.29
2018-12-19T23:44:14.536Z,7.16
2018-12-19T23:46:37.775Z,7.07
2018-12-19T23:49:00.949Z,7.03
2018-12-19T23:51:24.153Z,6.89
2018-12-19T23:53:47.321Z,7.22
2018-12-19T23:56:10.458Z,7.09
2018-12-19T23:58:33.558Z,7.02
